Time;durP1;ratioP1;P1;durP2;ratioP2;P2;SDS_P1;SDS_P2;PMS_P1;PMS_P2;Temp;Humidity;BMP_temperature;BMP_pressure;BME280_temperature;BME280_humidity;BME280_pressure;Samples;Min_cycle;Max_cycle;Signal;HPM_P1;HPM_P2
2021/01/23 00:01:25;;;;;;;6.40;3.83;;;;;;;4.62;69.25;93197.69;5104747;28;20515;-45
2021/01/23 00:03:51;;;;;;;4.03;3.17;;;;;;;4.78;68.49;93193.25;5104164;28;20477;-45
2021/01/23 00:06:17;;;;;;;6.53;3.70;;;;;;;4.94;67.85;93184.06;5111244;28;20111;-45
2021/01/23 00:08:42;;;;;;;6.25;4.13;;;;;;;5.06;67.51;93186.16;5114825;28;20035;-46
2021/01/23 00:11:08;;;;;;;6.88;4.43;;;;;;;4.99;67.66;93186.00;5114996;28;20026;-44
2021/01/23 00:13:33;;;;;;;8.27;5.40;;;;;;;4.88;67.96;93177.94;5114644;28;20040;-44
2021/01/23 00:15:59;;;;;;;6.70;4.57;;;;;;;4.74;68.85;93177.16;5114759;28;20023;-45
2021/01/23 00:18:24;;;;;;;12.55;7.85;;;;;;;4.77;68.57;93173.38;5114787;28;20031;-43
2021/01/23 00:20:50;;;;;;;10.73;6.55;;;;;;;4.72;68.41;93176.19;5114685;28;20020;-45
2021/01/23 00:23:15;;;;;;;7.65;5.00;;;;;;;4.71;68.64;93169.97;5114644;28;20031;-43
2021/01/23 00:25:41;;;;;;;10.13;5.53;;;;;;;4.75;68.74;93172.41;5114271;28;20476;-44
2021/01/23 00:28:07;;;;;;;14.15;8.48;;;;;;;4.60;68.85;93162.66;5114699;27;20420;-45
2021/01/23 00:30:32;;;;;;;9.07;5.93;;;;;;;4.69;68.39;93182.69;5114451;27;20513;-44
2021/01/23 00:32:57;;;;;;;10.77;5.90;;;;;;;4.62;68.84;93186.75;5102396;28;20537;-45
2021/01/23 00:35:23;;;;;;;6.47;4.75;;;;;;;4.59;68.70;93166.63;5094006;28;20032;-44
2021/01/23 00:37:49;;;;;;;4.63;3.97;;;;;;;4.57;69.29;93185.56;5094015;28;20035;-44
2021/01/23 00:40:15;;;;;;;13.32;7.28;;;;;;;4.57;69.32;93185.56;5093870;28;20116;-45
2021/01/23 00:42:41;;;;;;;17.55;10.60;;;;;;;4.52;69.30;93182.91;5093873;28;20031;-45
2021/01/23 00:45:07;;;;;;;11.77;5.43;;;;;;;4.43;69.54;93184.00;5110209;28;20019;-45
2021/01/23 00:47:33;;;;;;;8.70;6.22;;;;;;;4.46;70.09;93188.44;5101550;28;20034;-46
2021/01/23 00:49:58;;;;;;;7.35;4.75;;;;;;;4.47;69.61;93187.19;5114116;28;20015;-46
2021/01/23 00:52:24;;;;;;;4.88;3.10;;;;;;;4.61;69.22;93175.06;5113952;28;20097;-45
2021/01/23 00:54:49;;;;;;;6.85;5.07;;;;;;;4.65;69.30;93176.78;5114132;28;20026;-44
2021/01/23 00:57:16;;;;;;;7.53;4.78;;;;;;;4.66;68.86;93170.78;5113920;28;20492;-45
2021/01/23 00:59:42;;;;;;;9.30;5.55;;;;;;;4.68;68.91;93171.00;5114047;28;20031;-46
2021/01/23 01:02:07;;;;;;;4.78;3.65;;;;;;;4.70;69.13;93176.69;5113874;28;20504;-46
2021/01/23 01:04:33;;;;;;;7.47;3.55;;;;;;;4.87;68.39;93168.28;5113973;28;20019;-46
2021/01/23 01:06:58;;;;;;;11.13;5.35;;;;;;;4.84;68.60;93166.56;5113979;28;20038;-43
2021/01/23 01:09:23;;;;;;;12.52;7.43;;;;;;;4.86;68.16;93164.78;5113680;28;20511;-42
2021/01/23 01:11:49;;;;;;;14.10;7.38;;;;;;;4.86;68.21;93164.78;5112810;28;20095;-44
2021/01/23 01:14:14;;;;;;;14.40;7.55;;;;;;;4.83;68.15;93165.81;5113543;28;20027;-43
2021/01/23 01:16:40;;;;;;;9.93;5.47;;;;;;;4.71;67.91;93145.38;5113513;28;20030;-44
2021/01/23 01:19:05;;;;;;;8.15;4.93;;;;;;;4.87;67.64;93162.81;5113589;28;20020;-43
2021/01/23 01:21:31;;;;;;;6.72;4.40;;;;;;;4.88;67.78;93164.28;5113571;28;20034;-43
2021/01/23 01:23:56;;;;;;;6.97;4.35;;;;;;;4.84;68.17;93169.31;5113346;28;20031;-45
2021/01/23 01:26:21;;;;;;;8.25;5.03;;;;;;;4.73;68.30;93169.44;5113274;28;20027;-44
2021/01/23 01:28:47;;;;;;;8.73;4.63;;;;;;;4.84;67.83;93166.56;5113156;28;20130;-43
2021/01/23 01:31:12;;;;;;;11.80;6.50;;;;;;;4.67;68.90;93175.00;5113379;28;20039;-43
2021/01/23 01:33:38;;;;;;;8.23;5.13;;;;;;;4.64;69.18;93176.03;5113303;28;20400;-45
2021/01/23 01:36:04;;;;;;;8.05;5.15;;;;;;;4.69;69.30;93171.75;5113270;28;20023;-47
2021/01/23 01:38:29;;;;;;;7.57;5.03;;;;;;;4.54;69.58;93169.47;5113087;28;20168;-48
2021/01/23 01:40:55;;;;;;;7.90;4.60;;;;;;;4.56;69.19;93164.97;5113137;28;20027;-47
2021/01/23 01:43:20;;;;;;;7.60;4.53;;;;;;;4.48;69.36;93163.31;5113069;28;20024;-47
2021/01/23 01:45:46;;;;;;;7.55;5.10;;;;;;;4.45;69.94;93158.88;5113076;28;20485;-47
2021/01/23 01:48:11;;;;;;;8.45;5.90;;;;;;;4.46;70.16;93152.16;5113011;28;20032;-46
2021/01/23 01:50:38;;;;;;;8.65;4.55;;;;;;;4.51;69.73;93154.06;5111656;28;20023;-44
2021/01/23 01:53:05;;;;;;;8.85;4.57;;;;;;;4.40;69.97;93149.50;5111682;28;20111;-46
2021/01/23 01:55:32;;;;;;;8.38;5.00;;;;;;;4.39;69.99;93153.50;5112807;28;20496;-44
2021/01/23 01:57:58;;;;;;;7.20;4.63;;;;;;;4.48;69.67;93150.38;5099656;28;20027;-46
2021/01/23 02:00:24;;;;;;;9.45;4.68;;;;;;;4.33;70.12;93139.13;5091125;28;20420;-45
2021/01/23 02:03:13;;;;;;;10.85;5.30;;;;;;;4.30;70.19;93136.72;5092362;28;20028;-44
2021/01/23 02:06:13;;;;;;;;;;;;;;;4.31;70.01;93136.19;5092895;28;20051;-43
2021/01/23 02:09:20;;;;;;;9.45;5.05;;;;;;;4.26;69.68;93128.06;5049918;28;19954;-48
2021/01/23 02:12:16;;;;;;;12.05;6.22;;;;;;;4.17;70.35;93126.44;5030063;28;20120;-49
2021/01/23 02:14:49;;;;;;;20.23;9.60;;;;;;;4.12;70.49;93121.78;5029931;28;20033;-44
2021/01/23 02:17:17;;;;;;;19.05;9.80;;;;;;;4.03;71.46;93130.31;5069828;28;20032;-46
2021/01/23 02:19:48;;;;;;;13.52;6.72;;;;;;;4.11;71.51;93122.28;5090648;28;20572;-46
2021/01/23 02:22:24;;;;;;;9.60;5.47;;;;;;;4.12;71.32;93118.28;5091941;28;20031;-47
2021/01/23 02:24:51;;;;;;;15.48;8.73;;;;;;;4.09;71.43;93130.25;5090969;28;20093;-47
2021/01/23 02:27:25;;;;;;;19.48;11.35;;;;;;;4.04;70.93;93137.25;5091920;28;20059;-44
2021/01/23 02:30:01;;;;;;;16.63;9.73;;;;;;;4.08;70.64;93134.22;5103139;28;20059;-44
2021/01/23 02:32:28;;;;;;;16.67;9.27;;;;;;;3.79;71.41;93131.06;5111107;28;20565;-45
2021/01/23 02:34:55;;;;;;;16.08;9.63;;;;;;;3.82;71.26;93110.19;5111071;28;20108;-45
2021/01/23 02:37:21;;;;;;;19.58;9.82;;;;;;;3.96;70.38;93114.53;5110956;28;20902;-44
2021/01/23 02:39:47;;;;;;;15.45;8.40;;;;;;;3.88;70.04;93112.88;5111007;28;20031;-45
2021/01/23 02:42:12;;;;;;;13.70;6.78;;;;;;;3.76;70.16;93117.72;5110929;28;20511;-47
2021/01/23 02:44:38;;;;;;;13.30;7.60;;;;;;;3.48;72.40;93115.28;5112080;28;20091;-45
2021/01/23 02:47:03;;;;;;;10.35;6.90;;;;;;;3.66;71.78;93114.59;5111848;28;20031;-44
2021/01/23 02:49:29;;;;;;;13.18;8.55;;;;;;;3.73;71.50;93118.72;5111950;28;20028;-44
2021/01/23 02:52:03;;;;;;;13.57;8.00;;;;;;;3.70;72.19;93125.94;5110817;28;20031;-45
2021/01/23 02:54:55;;;;;;;8.75;5.40;;;;;;;3.70;72.25;93112.28;5112109;27;20032;-46
2021/01/23 02:57:21;;;;;;;10.15;4.30;;;;;;;3.79;71.53;93119.41;5090439;28;20035;-46
2021/01/23 02:59:51;;;;;;;10.55;5.97;;;;;;;3.68;71.46;93112.06;5090329;28;20235;-45
2021/01/23 03:02:18;;;;;;;9.35;5.25;;;;;;;3.55;72.23;93109.22;5090315;28;20024;-44
2021/01/23 03:04:44;;;;;;;8.48;4.85;;;;;;;3.44;73.08;93101.19;5090196;28;20169;-45
2021/01/23 03:07:13;;;;;;;7.85;4.57;;;;;;;3.47;74.00;93088.47;5090242;28;20122;-46
2021/01/23 03:09:38;;;;;;;8.73;4.00;;;;;;;3.46;74.04;93087.75;5091425;28;20020;-46
2021/01/23 03:12:04;;;;;;;6.65;4.35;;;;;;;3.47;73.77;93072.84;5091603;28;20421;-45
2021/01/23 03:14:30;;;;;;;13.98;4.63;;;;;;;3.54;73.87;93077.75;5091246;28;20556;-43
2021/01/23 03:16:56;;;;;;;8.68;4.22;;;;;;;3.67;73.79;93071.66;5091436;28;20024;-45
2021/01/23 03:19:22;;;;;;;10.98;4.80;;;;;;;3.81;73.15;93073.97;5091230;28;20040;-46
2021/01/23 03:21:49;;;;;;;6.97;4.22;;;;;;;4.00;72.47;93059.59;5091339;28;20024;-46
2021/01/23 03:24:15;;;;;;;7.00;4.20;;;;;;;4.10;72.46;93061.44;5091307;28;20487;-45
2021/01/23 03:26:41;;;;;;;7.55;4.30;;;;;;;4.03;71.78;93051.09;5098605;28;20038;-44
2021/01/23 03:29:07;;;;;;;6.55;4.07;;;;;;;4.27;71.57;93056.50;5111373;28;20044;-46
2021/01/23 03:31:33;;;;;;;6.45;4.18;;;;;;;4.37;70.82;93056.88;5111598;28;20088;-48
2021/01/23 03:33:59;;;;;;;5.82;3.75;;;;;;;4.48;70.77;93056.72;5113047;28;20088;-45
2021/01/23 03:36:25;;;;;;;5.90;4.07;;;;;;;4.48;70.43;93054.00;5115620;28;20496;-44
2021/01/23 03:38:51;;;;;;;11.40;7.00;;;;;;;4.42;70.34;93054.06;5115525;28;20504;-43
2021/01/23 03:41:16;;;;;;;11.50;5.10;;;;;;;4.33;70.89;93051.69;5115461;28;20403;-46
2021/01/23 03:43:42;;;;;;;9.13;6.05;;;;;;;4.43;70.50;93050.06;5115455;28;20027;-44
2021/01/23 03:46:07;;;;;;;9.60;6.00;;;;;;;4.36;70.29;93049.91;5115459;28;20028;-43
2021/01/23 03:48:32;;;;;;;9.98;5.57;;;;;;;4.17;70.76;93043.72;5115456;28;20032;-44
2021/01/23 03:50:58;;;;;;;9.57;6.85;;;;;;;4.11;71.37;93041.09;5115295;28;20061;-47
2021/01/23 03:53:23;;;;;;;9.73;5.63;;;;;;;4.06;71.46;93044.63;5115353;28;20038;-44
2021/01/23 03:55:49;;;;;;;8.95;5.70;;;;;;;4.03;71.80;93044.91;5115253;28;20016;-46
2021/01/23 03:58:18;;;;;;;8.20;5.40;;;;;;;3.99;71.91;93047.19;5115128;28;20023;-45
2021/01/23 04:00:43;;;;;;;9.98;5.65;;;;;;;3.98;72.18;93038.28;5115256;28;20034;-44
2021/01/23 04:03:09;;;;;;;10.73;6.63;;;;;;;3.96;72.14;93037.31;5115175;28;20043;-43
2021/01/23 04:05:34;;;;;;;10.35;5.72;;;;;;;3.96;71.88;93048.97;5115261;28;20036;-46
2021/01/23 04:08:00;;;;;;;11.43;5.55;;;;;;;3.89;72.34;93057.75;5115052;28;20126;-45
2021/01/23 04:10:25;;;;;;;8.40;5.10;;;;;;;4.02;72.17;93055.09;5114913;28;20031;-44
2021/01/23 04:12:51;;;;;;;7.47;4.43;;;;;;;3.87;72.35;93054.78;5114883;28;20455;-46
2021/01/23 04:15:16;;;;;;;9.82;5.15;;;;;;;3.87;72.59;93060.25;5114864;28;20465;-47
2021/01/23 04:17:41;;;;;;;12.70;7.20;;;;;;;3.94;72.30;93058.94;5115050;28;20050;-44
2021/01/23 04:20:07;;;;;;;8.55;4.85;;;;;;;3.84;73.19;93050.34;5114942;28;20053;-46
2021/01/23 04:22:33;;;;;;;11.50;5.35;;;;;;;3.94;72.28;93050.75;5114649;28;20538;-44
2021/01/23 04:24:58;;;;;;;8.50;5.60;;;;;;;3.91;72.66;93044.31;5114667;28;20137;-44
2021/01/23 04:27:24;;;;;;;13.82;6.90;;;;;;;3.75;72.91;93045.25;5114589;28;20038;-44
2021/01/23 04:29:49;;;;;;;8.13;5.78;;;;;;;3.68;73.00;93040.38;5114324;28;20058;-46
2021/01/23 04:32:15;;;;;;;15.43;6.57;;;;;;;3.47;73.55;93042.81;5114461;28;20034;-46
2021/01/23 04:34:40;;;;;;;9.90;4.97;;;;;;;3.21;74.42;93004.41;5114405;28;20062;-43
2021/01/23 04:37:05;;;;;;;7.53;4.53;;;;;;;3.38;74.98;93042.44;5114398;28;20022;-44
2021/01/23 04:39:31;;;;;;;9.50;6.05;;;;;;;3.34;75.24;93034.53;5114311;28;20447;-43
2021/01/23 04:41:56;;;;;;;8.32;5.22;;;;;;;3.35;75.18;93038.75;5113197;28;20392;-46
2021/01/23 04:44:22;;;;;;;6.10;4.13;;;;;;;3.41;75.36;93041.41;5113992;28;20027;-44
2021/01/23 04:46:47;;;;;;;6.55;4.03;;;;;;;3.64;74.55;93040.66;5113116;28;20020;-47
2021/01/23 04:49:13;;;;;;;8.35;4.78;;;;;;;3.64;74.36;93028.97;5114364;28;20065;-46
2021/01/23 04:51:38;;;;;;;8.77;4.85;;;;;;;3.72;74.01;93036.09;5114084;28;20040;-45
2021/01/23 04:54:05;;;;;;;6.57;4.07;;;;;;;4.00;72.89;93016.63;5114110;28;20032;-47
2021/01/23 04:56:30;;;;;;;4.25;3.22;;;;;;;4.24;71.85;93030.22;5113972;28;20496;-46
2021/01/23 04:58:56;;;;;;;7.40;4.72;;;;;;;4.29;71.53;93018.47;5113918;28;20114;-48
2021/01/23 05:01:21;;;;;;;9.98;4.22;;;;;;;4.32;71.46;93014.69;5113854;28;20123;-45
2021/01/23 05:03:57;;;;;;;6.18;4.00;;;;;;;4.46;70.78;93010.75;5113974;28;20028;-45
2021/01/23 05:06:22;;;;;;;10.45;5.85;;;;;;;4.30;71.38;92998.09;5113883;28;20098;-47
2021/01/23 05:08:48;;;;;;;8.55;6.70;;;;;;;4.26;71.51;93003.13;5113740;28;20605;-48
2021/01/23 05:11:13;;;;;;;13.18;7.00;;;;;;;4.17;72.07;93002.75;5113683;28;20050;-46
2021/01/23 05:13:39;;;;;;;8.57;6.35;;;;;;;4.10;72.11;93006.81;5113864;28;20106;-45
2021/01/23 05:16:26;;;;;;;11.07;6.50;;;;;;;4.09;72.13;92993.69;5113713;28;20030;-45
2021/01/23 05:19:01;;;;;;;12.48;6.78;;;;;;;4.20;71.90;93007.19;5113748;28;20034;-45
2021/01/23 05:21:26;;;;;;;12.45;5.75;;;;;;;4.03;72.34;92993.03;5113487;28;20023;-43
2021/01/23 05:24:09;;;;;;;8.35;5.35;;;;;;;4.03;71.99;92991.00;5112314;28;20046;-45
2021/01/23 05:26:36;;;;;;;9.05;5.68;;;;;;;3.90;72.46;92993.66;5112290;28;20046;-45
2021/01/23 05:29:13;;;;;;;8.20;4.65;;;;;;;3.86;73.04;92995.97;5113254;28;20055;-46
2021/01/23 05:31:40;;;;;;;10.98;5.50;;;;;;;3.78;73.94;92998.56;5113317;28;20067;-45
2021/01/23 05:34:34;;;;;;;8.90;4.93;;;;;;;3.94;72.74;92993.38;5113171;28;20026;-44
2021/01/23 05:36:59;;;;;;;7.05;4.43;;;;;;;4.04;72.54;92997.22;5113263;28;20030;-45
2021/01/23 05:40:00;;;;;;;5.22;3.92;;;;;;;4.26;71.60;92989.47;5113326;28;20040;-44
2021/01/23 05:42:26;;;;;;;8.30;5.63;;;;;;;4.24;71.66;92983.03;5070378;28;20115;-44
2021/01/23 05:45:17;;;;;;;8.27;5.68;;;;;;;4.24;71.92;92983.78;5104230;28;20032;-44
2021/01/23 05:47:43;;;;;;;6.20;5.28;;;;;;;4.22;71.50;92982.81;5110848;28;20066;-44
2021/01/23 05:50:09;;;;;;;11.02;7.05;;;;;;;4.27;71.73;92980.00;5112860;28;20488;-46
2021/01/23 05:52:36;;;;;;;7.68;5.57;;;;;;;4.22;72.11;92972.59;5112963;27;20023;-46
2021/01/23 05:55:02;;;;;;;12.63;6.95;;;;;;;4.24;71.54;92978.31;5113106;28;20043;-46
2021/01/23 05:57:28;;;;;;;15.00;7.45;;;;;;;4.18;72.08;92985.09;5112526;28;20027;-43
2021/01/23 05:59:54;;;;;;;8.07;5.28;;;;;;;4.20;72.00;92983.31;5112802;28;20039;-44
2021/01/23 06:02:20;;;;;;;11.32;5.65;;;;;;;4.27;71.67;92979.25;5112990;28;20035;-44
2021/01/23 06:04:50;;;;;;;10.07;4.88;;;;;;;4.36;71.75;92978.88;5112758;28;20037;-44
2021/01/23 06:07:40;;;;;;;15.55;3.83;;;;;;;4.63;70.88;92980.44;5112592;28;20024;-46
2021/01/23 06:10:25;;;;;;;7.20;3.80;;;;;;;4.93;70.05;92964.50;5112647;28;20031;-45
2021/01/23 06:12:52;;;;;;;5.15;3.70;;;;;;;5.05;69.04;92968.53;5112584;28;20488;-45
2021/01/23 06:15:37;;;;;;;5.15;3.05;;;;;;;5.17;68.88;92969.06;5112433;28;20084;-44
2021/01/23 06:18:27;;;;;;;11.73;5.18;;;;;;;5.22;68.39;92968.94;5112159;28;20062;-45
2021/01/23 06:20:54;;;;;;;8.40;4.43;;;;;;;5.20;68.52;92966.00;5112044;28;20035;-43
2021/01/23 06:23:23;;;;;;;6.88;4.15;;;;;;;5.17;68.26;92969.81;5111931;28;20411;-45
2021/01/23 06:25:48;;;;;;;8.07;5.53;;;;;;;5.08;68.82;92964.00;5111851;28;20028;-46
2021/01/23 06:28:14;;;;;;;7.15;4.60;;;;;;;5.16;68.41;92968.31;5111625;28;20039;-44
2021/01/23 06:30:40;;;;;;;7.95;4.70;;;;;;;5.07;68.45;92967.97;5111716;28;20049;-47
2021/01/23 06:33:26;;;;;;;6.20;4.30;;;;;;;4.99;68.97;92961.66;5111434;27;20015;-47
2021/01/23 06:36:04;;;;;;;7.35;4.35;;;;;;;4.75;69.70;92967.31;5111456;28;20492;-44
2021/01/23 06:38:29;;;;;;;7.35;4.70;;;;;;;4.81;69.72;92973.44;5111690;28;20028;-46
2021/01/23 06:40:55;;;;;;;9.57;4.82;;;;;;;4.95;69.40;92972.94;5111763;28;20026;-44
2021/01/23 06:43:20;;;;;;;7.07;4.90;;;;;;;5.07;69.08;92957.03;5111638;28;20476;-46
2021/01/23 06:45:46;;;;;;;7.38;4.95;;;;;;;5.15;68.36;92960.66;5111591;28;20047;-44
2021/01/23 06:48:11;;;;;;;13.82;6.47;;;;;;;5.29;67.74;92951.16;5111416;28;20035;-46
2021/01/23 06:50:43;;;;;;;9.25;5.03;;;;;;;5.33;67.71;92955.06;5110000;28;20023;-45
2021/01/23 06:53:14;;;;;;;11.73;5.38;;;;;;;5.26;67.93;92954.97;5111586;28;20023;-45
2021/01/23 06:55:46;;;;;;;8.13;5.95;;;;;;;5.27;68.08;92959.16;5107061;28;20036;-45
2021/01/23 06:58:22;;;;;;;8.40;4.75;;;;;;;5.38;67.96;92964.44;5110796;28;20024;-46
2021/01/23 07:00:50;;;;;;;10.43;4.38;;;;;;;5.46;67.86;92965.25;5111922;28;20115;-45
2021/01/23 07:03:16;;;;;;;5.57;4.25;;;;;;;5.34;67.79;92958.53;5093750;28;20085;-46
2021/01/23 07:05:49;;;;;;;7.43;4.93;;;;;;;5.53;67.71;92959.16;5095148;28;20042;-43
2021/01/23 07:08:26;;;;;;;6.78;4.63;;;;;;;5.73;66.87;92953.03;5109764;28;20030;-44
2021/01/23 07:11:11;;;;;;;6.82;4.40;;;;;;;5.98;66.00;92942.56;5111880;28;20027;-45
2021/01/23 07:13:38;;;;;;;7.40;4.20;;;;;;;6.03;65.64;92934.22;5106046;28;20115;-45
2021/01/23 07:16:04;;;;;;;7.72;4.60;;;;;;;5.98;65.58;92928.84;5103671;28;20016;-46
2021/01/23 07:18:30;;;;;;;10.38;5.60;;;;;;;6.08;65.67;92933.38;5100964;28;20016;-49
2021/01/23 07:20:55;;;;;;;14.43;8.52;;;;;;;6.20;65.77;92927.63;5095575;28;20028;-46
2021/01/23 07:23:21;;;;;;;13.25;8.50;;;;;;;6.42;65.05;92935.34;5106140;28;20030;-46
2021/01/23 07:25:48;;;;;;;14.20;8.15;;;;;;;6.40;64.40;92926.91;5105945;28;20088;-50
2021/01/23 07:28:20;;;;;;;26.98;18.60;;;;;;;6.44;64.68;92927.31;5104161;28;20024;-45
2021/01/23 07:30:46;;;;;;;26.77;15.88;;;;;;;6.37;64.89;92922.50;5103974;28;20044;-45
2021/01/23 07:33:12;;;;;;;24.92;12.98;;;;;;;6.36;64.67;92918.28;5105243;28;20024;-45
2021/01/23 07:35:39;;;;;;;19.73;9.77;;;;;;;6.54;64.15;92920.13;5105731;28;20417;-44
2021/01/23 07:38:05;;;;;;;13.13;8.30;;;;;;;6.59;64.40;92930.19;5103323;28;20028;-46
2021/01/23 07:40:35;;;;;;;6.90;4.43;;;;;;;6.77;63.21;92921.03;5105912;28;20020;-45
2021/01/23 07:43:05;;;;;;;6.65;4.28;;;;;;;6.96;62.79;92921.53;5104927;28;20028;-45
2021/01/23 07:45:31;;;;;;;15.25;8.48;;;;;;;6.87;63.40;92930.25;5101837;28;20114;-45
2021/01/23 07:48:00;;;;;;;10.32;6.30;;;;;;;6.87;63.12;92925.50;5111719;28;20530;-44
2021/01/23 07:50:26;;;;;;;8.60;4.22;;;;;;;6.98;62.67;92938.19;5114522;28;20038;-48
2021/01/23 07:52:52;;;;;;;10.80;6.75;;;;;;;6.94;62.78;92934.31;5114717;28;20035;-46
2021/01/23 07:55:17;;;;;;;12.13;7.82;;;;;;;6.95;63.16;92942.03;5113439;28;20028;-45
2021/01/23 07:58:06;;;;;;;9.70;5.75;;;;;;;6.87;62.55;92939.22;5111628;28;20020;-45
2021/01/23 08:00:31;;;;;;;7.45;5.35;;;;;;;7.06;61.78;92936.25;5114017;28;20043;-44
2021/01/23 08:02:58;;;;;;;6.63;4.28;;;;;;;7.18;62.01;92951.16;5113017;28;20031;-46
2021/01/23 08:05:50;;;;;;;8.32;4.32;;;;;;;7.27;61.66;92934.22;5113410;28;20064;-44
2021/01/23 08:08:33;;;;;;;12.32;6.60;;;;;;;7.31;61.69;92948.31;5112612;28;20027;-45
2021/01/23 08:11:02;;;;;;;11.75;6.97;;;;;;;7.41;61.42;92943.81;5112380;27;20083;-47
2021/01/23 08:13:29;;;;;;;8.85;5.00;;;;;;;7.48;60.49;92943.13;5112543;28;20020;-48
2021/01/23 08:16:11;;;;;;;12.00;5.60;;;;;;;7.21;61.77;92930.13;5112411;28;20076;-48
2021/01/23 08:18:37;;;;;;;5.60;3.83;;;;;;;7.36;61.01;92927.47;5112458;28;20038;-44
2021/01/23 08:21:03;;;;;;;6.38;4.80;;;;;;;7.52;60.70;92918.03;5111409;28;20035;-46
2021/01/23 08:23:33;;;;;;;8.02;4.50;;;;;;;7.66;60.61;92930.41;5107640;28;20031;-45
2021/01/23 08:25:59;;;;;;;8.18;4.25;;;;;;;7.83;59.68;92929.91;5104920;28;20027;-44
2021/01/23 08:28:33;;;;;;;5.90;3.78;;;;;;;8.02;58.89;92930.34;5113853;27;20157;-44
2021/01/23 08:31:18;;;;;;;6.22;3.80;;;;;;;8.09;59.08;92927.63;5106688;28;20500;-44
2021/01/23 08:33:44;;;;;;;7.55;4.20;;;;;;;8.19;58.55;92922.34;5102634;28;20056;-46
2021/01/23 08:36:10;;;;;;;8.43;3.53;;;;;;;8.38;57.52;92926.25;5111243;28;20019;-45
2021/01/23 08:38:36;;;;;;;6.68;3.92;;;;;;;8.33;58.00;92927.19;5113811;28;20023;-45
2021/01/23 08:41:01;;;;;;;7.50;4.03;;;;;;;8.27;58.10;92921.09;5106712;28;20028;-45
2021/01/23 08:43:28;;;;;;;7.03;4.10;;;;;;;8.20;58.02;92913.56;5112063;28;20490;-48
2021/01/23 08:45:54;;;;;;;6.68;3.80;;;;;;;8.38;57.62;92922.78;5113703;28;20098;-43
2021/01/23 08:48:20;;;;;;;7.57;4.43;;;;;;;8.24;58.17;92896.69;5113583;28;20514;-47
2021/01/23 08:50:45;;;;;;;6.22;3.22;;;;;;;8.49;57.21;92916.91;5098483;28;20040;-46
2021/01/23 08:53:11;;;;;;;6.15;3.97;;;;;;;8.47;57.40;92908.47;5093084;28;20047;-46
2021/01/23 08:55:36;;;;;;;5.78;3.33;;;;;;;8.49;57.27;92914.16;5095374;28;20037;-46
2021/01/23 08:58:01;;;;;;;6.93;3.67;;;;;;;8.30;57.84;92911.03;5100370;28;20018;-44
2021/01/23 09:00:27;;;;;;;5.97;4.22;;;;;;;8.33;57.89;92916.19;5110187;28;20047;-45
2021/01/23 09:02:52;;;;;;;6.72;3.58;;;;;;;8.37;57.75;92908.31;5113409;28;20034;-48
2021/01/23 09:05:18;;;;;;;6.60;3.83;;;;;;;8.49;57.94;92916.91;5113436;28;20027;-47
2021/01/23 09:07:43;;;;;;;7.15;5.13;;;;;;;8.55;57.73;92917.50;5113228;28;20405;-46
2021/01/23 09:10:10;;;;;;;6.70;3.88;;;;;;;8.79;56.97;92911.44;5113220;28;20031;-49
2021/01/23 09:12:36;;;;;;;8.18;4.07;;;;;;;8.72;56.66;92901.19;5113226;27;20102;-46
2021/01/23 09:15:04;;;;;;;10.27;4.72;;;;;;;8.75;57.77;92922.09;5113208;27;20027;-48
2021/01/23 09:17:29;;;;;;;8.40;4.75;;;;;;;9.01;56.44;92924.47;5113063;28;20054;-45
2021/01/23 09:19:54;;;;;;;7.45;4.00;;;;;;;9.27;56.74;92922.66;5113109;28;20059;-44
2021/01/23 09:22:20;;;;;;;4.25;2.92;;;;;;;9.69;53.98;92923.66;5113012;28;20496;-45
2021/01/23 09:24:45;;;;;;;4.28;3.00;;;;;;;9.91;54.43;92928.38;5113018;28;20028;-46
2021/01/23 09:27:11;;;;;;;4.40;3.25;;;;;;;10.42;51.92;92923.19;5112896;28;20028;-47
2021/01/23 09:29:40;;;;;;;4.95;2.88;;;;;;;10.94;51.98;92923.41;5112382;28;20067;-44
2021/01/23 09:32:07;;;;;;;5.57;3.67;;;;;;;11.38;50.11;92911.25;5112218;28;20424;-45
2021/01/23 09:34:35;;;;;;;13.85;6.93;;;;;;;11.70;49.89;92902.09;5112633;28;20024;-45
2021/01/23 09:37:02;;;;;;;14.68;7.80;;;;;;;11.93;48.85;92907.41;5112664;28;20024;-48
2021/01/23 09:39:30;;;;;;;5.00;4.03;;;;;;;12.04;48.54;92904.13;5111410;28;20094;-47
2021/01/23 09:41:56;;;;;;;6.75;3.00;;;;;;;12.72;46.47;92906.00;5112599;28;20024;-46
2021/01/23 09:44:22;;;;;;;7.97;2.95;;;;;;;13.32;44.86;92901.59;5111504;28;20027;-45
2021/01/23 09:46:47;;;;;;;4.18;2.55;;;;;;;14.74;42.41;92889.03;5111205;28;20031;-46
2021/01/23 09:49:12;;;;;;;3.63;2.88;;;;;;;15.42;41.09;92878.38;5092117;28;20032;-43
2021/01/23 09:51:38;;;;;;;5.10;2.78;;;;;;;16.26;37.82;92875.59;5092315;28;20417;-44
2021/01/23 09:54:03;;;;;;;4.88;3.25;;;;;;;16.41;38.42;92880.00;5092127;28;20043;-44
2021/01/23 09:56:29;;;;;;;5.72;3.30;;;;;;;16.90;36.67;92875.41;5092231;28;20520;-46
2021/01/23 09:58:54;;;;;;;4.53;3.28;;;;;;;17.17;35.38;92861.72;5092058;28;20116;-47
2021/01/23 10:01:20;;;;;;;5.35;3.72;;;;;;;16.80;35.90;92866.41;5096579;28;20614;-45
2021/01/23 10:03:46;;;;;;;5.40;3.50;;;;;;;16.88;36.79;92852.97;5107908;28;20032;-45
2021/01/23 10:06:11;;;;;;;4.57;2.65;;;;;;;17.23;34.95;92868.41;5111809;28;20032;-44
2021/01/23 10:08:37;;;;;;;4.20;3.15;;;;;;;16.35;36.13;92855.25;5112116;28;20059;-43
2021/01/23 10:11:02;;;;;;;4.55;3.78;;;;;;;16.76;37.58;92847.38;5111976;28;20027;-42
2021/01/23 10:13:27;;;;;;;4.55;3.45;;;;;;;16.54;37.01;92855.09;5112173;28;20024;-43
2021/01/23 10:15:53;;;;;;;5.35;3.63;;;;;;;16.52;36.42;92857.75;5111678;28;20427;-45
2021/01/23 10:18:18;;;;;;;4.63;3.38;;;;;;;16.09;36.64;92856.34;5111463;28;20022;-44
2021/01/23 10:20:44;;;;;;;4.85;3.53;;;;;;;15.07;39.23;92851.00;5111472;28;20034;-45
2021/01/23 10:23:09;;;;;;;7.32;3.20;;;;;;;15.38;40.38;92847.47;5111884;28;20015;-51
2021/01/23 10:25:35;;;;;;;6.13;4.38;;;;;;;15.85;38.30;92838.13;5097690;27;20588;-45
2021/01/23 10:28:00;;;;;;;8.65;4.55;;;;;;;15.70;39.47;92853.16;5091710;28;20024;-45
2021/01/23 10:30:26;;;;;;;5.78;4.07;;;;;;;16.11;37.46;92834.22;5095311;28;20055;-43
2021/01/23 10:32:51;;;;;;;5.25;3.60;;;;;;;15.78;37.59;92841.81;5111628;28;20031;-44
2021/01/23 10:35:17;;;;;;;5.28;3.50;;;;;;;14.66;39.79;92841.22;5111596;28;20088;-43
2021/01/23 10:37:42;;;;;;;3.95;3.05;;;;;;;13.90;41.65;92827.47;5108007;28;20472;-46
2021/01/23 10:40:09;;;;;;;8.70;3.42;;;;;;;13.88;41.79;92821.78;5106980;28;20031;-48
2021/01/23 10:42:34;;;;;;;5.82;3.40;;;;;;;12.97;44.12;92817.91;5111199;28;20027;-49
2021/01/23 10:45:00;;;;;;;5.20;3.30;;;;;;;12.53;45.64;92804.19;5107167;28;20035;-46
2021/01/23 10:47:26;;;;;;;3.83;3.20;;;;;;;11.99;46.55;92806.25;5111244;28;20423;-45
2021/01/23 10:49:51;;;;;;;4.25;3.35;;;;;;;11.49;48.49;92782.88;5111468;28;20039;-47
2021/01/23 10:52:17;;;;;;;5.32;3.83;;;;;;;11.26;49.17;92802.47;5111422;28;20046;-47
2021/01/23 10:54:42;;;;;;;6.55;3.97;;;;;;;11.07;49.62;92782.97;5100046;28;20028;-47
2021/01/23 10:57:08;;;;;;;5.72;3.38;;;;;;;10.86;50.23;92784.66;5101835;28;20034;-47
2021/01/23 10:59:33;;;;;;;4.32;3.10;;;;;;;10.59;51.35;92781.75;5106214;28;20023;-47
2021/01/23 11:01:59;;;;;;;6.53;3.95;;;;;;;10.47;51.96;92778.00;5102151;28;20050;-45
2021/01/23 11:04:24;;;;;;;4.75;3.95;;;;;;;10.32;52.11;92756.78;5104833;28;20020;-47
2021/01/23 11:06:50;;;;;;;7.22;4.22;;;;;;;10.26;52.79;92766.56;5103772;28;20405;-45
2021/01/23 11:09:16;;;;;;;4.65;3.47;;;;;;;10.25;52.86;92763.06;5098617;28;20032;-48
2021/01/23 11:11:41;;;;;;;8.43;4.10;;;;;;;10.06;53.00;92765.59;5100847;28;20505;-46
2021/01/23 11:14:06;;;;;;;5.15;3.30;;;;;;;9.93;53.49;92765.84;5111182;28;20106;-47
2021/01/23 11:16:32;;;;;;;6.05;3.10;;;;;;;9.87;54.09;92752.25;5093133;28;20048;-47
2021/01/23 11:18:59;;;;;;;6.45;3.40;;;;;;;9.80;54.08;92755.09;5094522;28;20026;-46
2021/01/23 11:21:25;;;;;;;5.90;3.30;;;;;;;9.58;54.37;92740.13;5111277;28;20481;-49
2021/01/23 11:23:50;;;;;;;6.78;3.58;;;;;;;9.61;54.75;92741.78;5102365;28;20115;-49
2021/01/23 11:26:16;;;;;;;8.65;3.78;;;;;;;9.52;55.44;92750.66;5101035;28;20028;-46
2021/01/23 11:28:41;;;;;;;6.05;3.92;;;;;;;9.43;55.88;92742.22;5097991;28;20028;-47
2021/01/23 11:31:07;;;;;;;5.32;3.53;;;;;;;9.47;55.32;92734.31;5101596;28;20481;-47
2021/01/23 11:33:32;;;;;;;5.85;4.72;;;;;;;9.30;55.94;92734.94;5110716;28;20089;-46
2021/01/23 11:35:58;;;;;;;7.38;4.18;;;;;;;9.27;55.96;92722.28;5110939;28;20035;-45
2021/01/23 11:38:23;;;;;;;5.70;3.67;;;;;;;9.28;56.21;92715.50;5110958;28;20098;-51
2021/01/23 11:40:49;;;;;;;4.70;3.60;;;;;;;9.32;55.94;92731.63;5109867;28;20419;-51
2021/01/23 11:43:14;;;;;;;4.55;3.33;;;;;;;9.38;56.07;92732.16;5111058;28;20472;-47